Time;durP1;ratioP1;P1;durP2;ratioP2;P2;SDS_P1;SDS_P2;PMS_P1;PMS_P2;Temp;Humidity;BMP_temperature;BMP_pressure;BME280_temperature;BME280_humidity;BME280_pressure;Samples;Min_cycle;Max_cycle;Signal;HPM_P1;HPM_P2
2022/09/11 00:00:50;;;;;;;11.10;6.05;;;15.60;99.90;;;;;;5018194;28;20033;-60
2022/09/11 00:03:21;;;;;;;11.60;6.38;;;15.50;99.90;;;;;;5018648;28;20050;-59
2022/09/11 00:05:48;;;;;;;14.45;6.65;;;15.50;99.90;;;;;;5018219;28;20062;-60
2022/09/11 00:08:16;;;;;;;14.88;6.28;;;15.40;99.90;;;;;;5049784;28;20042;-59
2022/09/11 00:10:43;;;;;;;10.40;6.35;;;15.50;99.90;;;;;;5018553;28;20070;-60
2022/09/11 00:13:11;;;;;;;10.40;5.65;;;15.40;99.90;;;;;;5018361;28;20038;-61
2022/09/11 00:15:39;;;;;;;13.88;6.38;;;15.40;99.90;;;;;;5018515;28;20050;-59
2022/09/11 00:18:06;;;;;;;11.45;6.40;;;15.30;99.90;;;;;;5018480;28;20069;-60
2022/09/11 00:20:33;;;;;;;12.75;6.85;;;15.40;99.90;;;;;;5017964;28;20082;-59
2022/09/11 00:23:03;;;;;;;13.15;6.20;;;15.30;99.90;;;;;;5017449;28;20057;-59
2022/09/11 00:25:39;;;;;;;15.60;7.50;;;15.40;99.90;;;;;;5017802;28;20037;-59
2022/09/11 00:28:06;;;;;;;14.63;5.90;;;15.40;99.90;;;;;;5018199;28;20031;-58
2022/09/11 00:30:33;;;;;;;17.67;6.93;;;15.30;99.90;;;;;;5018258;28;20054;-59
2022/09/11 00:33:00;;;;;;;11.50;6.15;;;15.30;99.90;;;;;;5017940;28;20057;-59
2022/09/11 00:35:28;;;;;;;10.48;5.97;;;15.30;99.90;;;;;;5018227;28;20082;-59
2022/09/11 00:37:54;;;;;;;9.93;5.22;;;15.20;99.90;;;;;;5049833;28;20061;-59
2022/09/11 00:40:22;;;;;;;13.90;6.85;;;15.20;99.90;;;;;;5017970;28;20093;-59
2022/09/11 00:42:52;;;;;;;14.18;6.25;;;15.20;99.90;;;;;;5017724;28;20061;-58
2022/09/11 00:45:21;;;;;;;13.52;6.22;;;15.10;99.90;;;;;;5017174;28;20085;-59
2022/09/11 00:47:48;;;;;;;9.95;5.68;;;15.10;99.90;;;;;;5017436;28;20085;-59
2022/09/11 00:50:17;;;;;;;10.65;6.32;;;15.10;99.90;;;;;;5017384;28;20031;-59
2022/09/11 00:52:52;;;;;;;10.38;6.93;;;15.00;99.90;;;;;;5016696;28;20058;-59
2022/09/11 00:55:20;;;;;;;12.50;6.43;;;15.00;99.90;;;;;;5017172;28;20062;-59
2022/09/11 00:57:52;;;;;;;14.93;5.80;;;14.90;99.90;;;;;;5016950;28;20049;-57
2022/09/11 01:00:19;;;;;;;17.08;6.20;;;14.90;99.90;;;;;;4667987;28;10000565;-59
2022/09/11 01:02:47;;;;;;;12.15;5.78;;;14.90;99.90;;;;;;5015475;28;20054;-58
2022/09/11 01:05:15;;;;;;;9.75;5.78;;;14.90;99.90;;;;;;5016901;28;20094;-58
2022/09/11 01:07:42;;;;;;;9.60;5.63;;;14.90;99.90;;;;;;5017299;28;20045;-58
2022/09/11 01:10:09;;;;;;;9.73;5.85;;;14.90;99.90;;;;;;5020348;28;20042;-58
2022/09/11 01:12:42;;;;;;;14.25;5.80;;;14.80;99.90;;;;;;5036318;28;20064;-57
2022/09/11 01:15:43;;;;;;;9.82;5.68;;;14.80;99.90;;;;;;5037384;28;20097;-59
2022/09/11 01:18:14;;;;;;;11.60;6.40;;;14.80;99.90;;;;;;5034438;28;20034;-59
2022/09/11 01:20:52;;;;;;;12.68;6.35;;;14.80;99.90;;;;;;5020496;28;20072;-59
2022/09/11 01:23:44;;;;;;;15.60;5.97;;;14.80;99.90;;;;;;5036517;28;20284;-60
2022/09/11 01:26:34;;;;;;;9.63;6.05;;;14.80;99.90;;;;;;5021884;28;20094;-59
2022/09/11 01:29:26;;;;;;;10.70;5.45;;;14.80;99.90;;;;;;5050103;28;20061;-60
2022/09/11 01:32:01;;;;;;;10.00;6.15;;;14.80;99.90;;;;;;5017218;28;20035;-60
2022/09/11 01:34:58;;;;;;;14.65;6.85;;;14.70;99.90;;;;;;5016981;28;20085;-59
2022/09/11 01:37:34;;;;;;;10.73;6.68;;;14.70;99.90;;;;;;4989294;28;20060;-59
2022/09/11 01:40:09;;;;;;;10.02;6.43;;;14.70;99.90;;;;;;5036657;28;20060;-59
2022/09/11 01:42:38;;;;;;;9.63;5.77;;;14.60;99.90;;;;;;5020756;28;20057;-59
2022/09/11 01:45:05;;;;;;;14.88;6.22;;;14.60;99.90;;;;;;5020034;28;20108;-58
2022/09/11 01:47:33;;;;;;;11.68;6.55;;;14.60;99.90;;;;;;5019937;28;20030;-60
2022/09/11 01:50:02;;;;;;;9.85;6.15;;;14.60;99.90;;;;;;5019816;28;20080;-60
2022/09/11 01:52:50;;;;;;;14.88;6.30;;;14.60;99.90;;;;;;5015902;28;20026;-60
2022/09/11 01:55:22;;;;;;;13.73;6.78;;;14.60;99.90;;;;;;5017082;28;20053;-60
2022/09/11 01:58:23;;;;;;;12.65;6.80;;;14.60;99.90;;;;;;5052550;28;20256;-60
2022/09/11 02:00:52;;;;;;;16.73;6.65;;;14.60;99.90;;;;;;4996040;28;20049;-60
2022/09/11 02:03:34;;;;;;;12.93;6.93;;;14.50;99.90;;;;;;5023805;28;20099;-59
2022/09/11 02:06:03;;;;;;;14.13;7.20;;;14.50;99.90;;;;;;5022861;28;20117;-59
2022/09/11 02:08:38;;;;;;;11.10;6.60;;;14.50;99.90;;;;;;5003879;28;20051;-58
2022/09/11 02:11:08;;;;;;;11.00;6.82;;;14.50;99.90;;;;;;5020024;28;20030;-59
2022/09/11 02:14:09;;;;;;;17.17;6.95;;;14.40;99.90;;;;;;5004168;28;20030;-60
2022/09/11 02:17:02;;;;;;;13.38;7.45;;;14.40;99.90;;;;;;5018156;28;20038;-60
2022/09/11 02:19:29;;;;;;;13.57;7.05;;;14.50;99.90;;;;;;5002346;28;20114;-59
2022/09/11 02:21:57;;;;;;;10.15;6.55;;;14.40;99.90;;;;;;5052372;28;20115;-60
2022/09/11 02:24:24;;;;;;;11.73;6.70;;;14.40;99.90;;;;;;5020551;28;20775;-60
2022/09/11 02:26:57;;;;;;;10.13;6.40;;;14.50;99.90;;;;;;5017185;28;20058;-59
2022/09/11 02:29:23;;;;;;;11.02;6.55;;;14.40;99.90;;;;;;5020141;28;20042;-60
2022/09/11 02:31:51;;;;;;;11.13;7.30;;;14.40;99.90;;;;;;5019356;28;20054;-60
2022/09/11 02:34:20;;;;;;;12.70;7.22;;;14.40;99.90;;;;;;5019875;28;20077;-61
2022/09/11 02:37:02;;;;;;;11.93;6.30;;;14.40;99.90;;;;;;5019531;28;20090;-60
2022/09/11 02:39:41;;;;;;;9.73;6.82;;;14.40;99.90;;;;;;5019838;28;20050;-60
2022/09/11 02:42:23;;;;;;;9.23;6.22;;;14.30;99.90;;;;;;5020281;28;20094;-60
2022/09/11 02:45:15;;;;;;;9.20;6.30;;;14.30;99.90;;;;;;5020541;28;20045;-57
2022/09/11 02:47:51;;;;;;;10.20;5.70;;;14.30;99.90;;;;;;5016394;28;20072;-59
2022/09/11 02:50:39;;;;;;;11.45;5.95;;;14.20;99.90;;;;;;5019529;28;20100;-60
2022/09/11 02:53:09;;;;;;;7.32;5.05;;;14.30;99.90;;;;;;5019612;28;20030;-60
2022/09/11 02:55:44;;;;;;;6.32;5.50;;;14.20;99.90;;;;;;5019551;28;20060;-59
2022/09/11 02:58:21;;;;;;;7.72;6.05;;;14.10;99.90;;;;;;5003328;28;20045;-59
2022/09/11 03:00:49;;;;;;;7.53;5.40;;;14.00;99.90;;;;;;5019517;28;20034;-59
2022/09/11 03:03:16;;;;;;;8.38;5.72;;;14.00;99.90;;;;;;5019145;28;20031;-59
2022/09/11 03:05:42;;;;;;;11.30;6.10;;;14.00;99.90;;;;;;5020011;28;20050;-59
2022/09/11 03:08:10;;;;;;;11.75;5.53;;;14.00;99.90;;;;;;5018841;28;20072;-59
2022/09/11 03:10:37;;;;;;;12.90;6.30;;;14.00;99.90;;;;;;5018901;28;20307;-60
2022/09/11 03:13:04;;;;;;;7.85;5.40;;;14.00;99.90;;;;;;5019391;28;20065;-60
2022/09/11 03:15:31;;;;;;;7.68;5.28;;;13.90;99.90;;;;;;5019578;28;20065;-60
2022/09/11 03:17:58;;;;;;;9.10;5.13;;;14.00;99.90;;;;;;5019513;28;20030;-60
2022/09/11 03:20:25;;;;;;;14.00;5.28;;;13.90;99.90;;;;;;5019720;28;20054;-61
2022/09/11 03:22:51;;;;;;;11.00;5.20;;;14.00;99.90;;;;;;5018951;28;20065;-60
2022/09/11 03:25:19;;;;;;;12.98;5.97;;;14.00;99.90;;;;;;5019732;28;20235;-60
2022/09/11 03:27:46;;;;;;;6.70;5.03;;;14.00;99.90;;;;;;5019366;28;20026;-60
2022/09/11 03:30:13;;;;;;;7.65;4.90;;;14.10;99.90;;;;;;5018826;28;20089;-60
2022/09/11 03:32:39;;;;;;;11.73;4.45;;;14.00;99.90;;;;;;5019021;28;20058;-58
2022/09/11 03:35:06;;;;;;;9.25;4.93;;;14.00;99.90;;;;;;5019493;28;20026;-58
2022/09/11 03:37:33;;;;;;;8.20;4.43;;;14.10;99.90;;;;;;5018599;28;20034;-59
2022/09/11 03:40:01;;;;;;;7.47;5.32;;;14.20;99.90;;;;;;5019181;28;20052;-60
2022/09/11 03:42:28;;;;;;;5.93;4.53;;;14.20;99.90;;;;;;5051030;28;20056;-59
2022/09/11 03:44:55;;;;;;;9.73;5.10;;;14.30;99.90;;;;;;5051277;28;20030;-58
2022/09/11 03:47:22;;;;;;;9.43;5.30;;;14.30;99.90;;;;;;5051140;28;20054;-59
2022/09/11 03:49:49;;;;;;;11.20;5.40;;;14.30;99.90;;;;;;5018931;28;20098;-59
2022/09/11 03:52:15;;;;;;;23.67;6.88;;;14.40;99.90;;;;;;5018720;28;20037;-59
2022/09/11 03:54:42;;;;;;;39.88;8.98;;;14.40;99.90;;;;;;5018703;28;20054;-58
2022/09/11 03:57:09;;;;;;;47.45;11.15;;;14.50;99.90;;;;;;5019137;28;20106;-58
2022/09/11 03:59:36;;;;;;;57.38;13.38;;;14.50;99.90;;;;;;5018747;28;20027;-60
2022/09/11 04:02:02;;;;;;;56.45;15.00;;;14.40;99.90;;;;;;5017265;28;20182;-59
2022/09/11 04:04:29;;;;;;;87.65;13.68;;;14.40;99.90;;;;;;5018110;28;20094;-60
2022/09/11 04:06:56;;;;;;;62.58;14.57;;;14.40;99.90;;;;;;5018494;28;20101;-60
2022/09/11 04:09:23;;;;;;;80.25;14.85;;;14.50;99.90;;;;;;5029753;28;20038;-60
2022/09/11 04:11:49;;;;;;;57.28;12.95;;;14.50;99.90;;;;;;5021497;28;20101;-59
2022/09/11 04:14:16;;;;;;;70.88;13.57;;;14.60;99.90;;;;;;5037963;28;20381;-59
2022/09/11 04:16:43;;;;;;;62.10;13.00;;;14.50;99.90;;;;;;5021224;28;20056;-59
2022/09/11 04:19:11;;;;;;;83.00;13.95;;;14.50;99.90;;;;;;5037875;28;20030;-59
2022/09/11 04:21:38;;;;;;;70.90;15.30;;;14.60;99.90;;;;;;5037002;28;20131;-59
2022/09/11 04:24:05;;;;;;;67.57;15.93;;;14.60;99.90;;;;;;5038056;28;20030;-59
2022/09/11 04:26:32;;;;;;;63.20;16.85;;;14.70;99.90;;;;;;5037915;28;20061;-58
2022/09/11 04:28:59;;;;;;;72.65;15.00;;;14.70;99.90;;;;;;5053837;28;20077;-58
2022/09/11 04:31:29;;;;;;;61.28;14.90;;;14.70;99.90;;;;;;5037814;28;20045;-58
2022/09/11 04:33:56;;;;;;;44.88;15.02;;;14.70;99.90;;;;;;5037486;28;20040;-59
2022/09/11 04:36:25;;;;;;;44.95;15.68;;;14.80;99.90;;;;;;5021172;28;20236;-59
2022/09/11 04:38:56;;;;;;;47.55;14.50;;;14.80;99.90;;;;;;5037669;28;20057;-59
2022/09/11 04:41:23;;;;;;;77.68;14.63;;;14.80;99.90;;;;;;5034850;28;20026;-59
2022/09/11 04:43:56;;;;;;;65.70;14.57;;;14.80;99.90;;;;;;5037887;28;20044;-59
2022/09/11 04:46:29;;;;;;;56.28;14.60;;;14.80;99.90;;;;;;5034255;28;20053;-60
2022/09/11 04:49:00;;;;;;;69.65;15.00;;;14.80;99.90;;;;;;5037715;28;20064;-59
2022/09/11 04:51:29;;;;;;;54.28;15.40;;;14.80;99.90;;;;;;5037084;28;20077;-60
2022/09/11 04:53:56;;;;;;;61.53;15.68;;;14.90;99.90;;;;;;5053148;28;20054;-59
2022/09/11 04:56:24;;;;;;;48.58;15.98;;;14.90;99.90;;;;;;5037153;28;20260;-59
2022/09/11 04:58:55;;;;;;;60.05;16.15;;;14.90;99.90;;;;;;5037495;28;20093;-59
2022/09/11 05:01:23;;;;;;;43.13;17.13;;;14.90;99.90;;;;;;5037242;28;20068;-59
2022/09/11 05:03:50;;;;;;;54.92;15.95;;;15.00;99.90;;;;;;5037359;28;20030;-59
2022/09/11 05:06:17;;;;;;;55.47;16.73;;;15.00;99.90;;;;;;5037094;28;20057;-60
2022/09/11 05:08:44;;;;;;;42.13;15.85;;;15.10;99.90;;;;;;5036965;28;20084;-60
2022/09/11 05:11:14;;;;;;;54.58;16.20;;;15.10;99.90;;;;;;5036961;28;20360;-60
2022/09/11 05:13:41;;;;;;;32.65;16.38;;;15.10;99.90;;;;;;5020178;28;20064;-60
2022/09/11 05:16:12;;;;;;;53.83;15.10;;;15.10;99.90;;;;;;5036873;28;20090;-60
2022/09/11 05:18:40;;;;;;;48.97;15.38;;;15.20;99.90;;;;;;5020399;28;20037;-60
2022/09/11 05:21:10;;;;;;;56.03;15.32;;;15.20;99.90;;;;;;5020222;28;20075;-60
2022/09/11 05:23:36;;;;;;;46.45;14.75;;;15.20;99.90;;;;;;5020154;28;20093;-60
2022/09/11 05:26:04;;;;;;;50.65;14.15;;;15.20;99.90;;;;;;5052430;28;20026;-60
2022/09/11 05:28:31;;;;;;;45.97;13.68;;;15.20;99.90;;;;;;5036951;28;20070;-60
2022/09/11 05:30:58;;;;;;;60.28;13.02;;;15.20;99.90;;;;;;5036994;28;20025;-60
2022/09/11 05:33:25;;;;;;;29.80;14.25;;;15.10;99.90;;;;;;5035987;28;20098;-60
2022/09/11 05:35:53;;;;;;;31.63;13.40;;;15.10;99.90;;;;;;5052367;28;20038;-59
2022/09/11 05:38:20;;;;;;;35.45;14.63;;;15.10;99.90;;;;;;5052386;28;20069;-59
2022/09/11 05:40:48;;;;;;;32.75;13.57;;;15.10;99.90;;;;;;5036648;28;20049;-61
2022/09/11 05:43:15;;;;;;;28.67;13.45;;;15.20;99.90;;;;;;5036571;28;20085;-60
2022/09/11 05:45:43;;;;;;;23.15;13.00;;;15.20;99.90;;;;;;5036608;28;20038;-60
2022/09/11 05:48:10;;;;;;;36.70;13.30;;;15.20;99.90;;;;;;5003339;28;20056;-60
2022/09/11 05:50:37;;;;;;;28.83;13.77;;;15.20;99.90;;;;;;5019742;28;20034;-59
2022/09/11 05:53:04;;;;;;;36.58;13.68;;;15.20;99.90;;;;;;5036072;28;20060;-58
2022/09/11 05:55:34;;;;;;;50.88;14.82;;;15.10;99.90;;;;;;5036562;28;20106;-59
2022/09/11 05:58:01;;;;;;;36.80;13.50;;;15.10;99.90;;;;;;5036415;28;20105;-59
2022/09/11 06:00:29;;;;;;;35.15;13.05;;;15.10;99.90;;;;;;5036725;28;20293;-58
2022/09/11 06:02:57;;;;;;;27.98;14.07;;;15.00;99.90;;;;;;5052144;28;20065;-58
2022/09/11 06:05:23;;;;;;;20.02;12.38;;;15.10;99.90;;;;;;5019680;28;20038;-58
2022/09/11 06:07:50;;;;;;;20.00;13.52;;;15.10;99.90;;;;;;5037551;28;20090;-60
2022/09/11 06:10:17;;;;;;;24.80;14.05;;;15.10;99.90;;;;;;5019923;28;20054;-59
2022/09/11 06:12:44;;;;;;;22.80;13.88;;;15.20;99.90;;;;;;5036397;28;20026;-60
2022/09/11 06:15:11;;;;;;;19.08;13.95;;;15.20;99.90;;;;;;5019951;28;20042;-58
2022/09/11 06:17:58;;;;;;;19.05;13.18;;;15.30;99.90;;;;;;5036100;28;20042;-58
2022/09/11 06:20:25;;;;;;;22.20;14.32;;;15.30;99.90;;;;;;5036561;28;20034;-59
2022/09/11 06:22:53;;;;;;;33.95;14.77;;;15.40;99.90;;;;;;5036024;28;20026;-59
2022/09/11 06:25:20;;;;;;;24.85;13.95;;;15.40;99.90;;;;;;5036474;28;20049;-59
2022/09/11 06:27:48;;;;;;;32.80;14.55;;;15.40;99.90;;;;;;5036198;28;20022;-56
2022/09/11 06:30:15;;;;;;;26.77;13.88;;;15.50;99.90;;;;;;5036234;28;20030;-58
2022/09/11 06:32:42;;;;;;;24.70;13.18;;;15.50;99.90;;;;;;5035948;28;20097;-59
2022/09/11 06:35:09;;;;;;;29.10;13.70;;;15.50;99.90;;;;;;5036045;28;20034;-60
2022/09/11 06:37:36;;;;;;;20.77;13.95;;;15.60;99.90;;;;;;5019054;28;20090;-58
2022/09/11 06:40:03;;;;;;;23.20;14.05;;;15.70;99.90;;;;;;5035681;28;20033;-59
2022/09/11 06:42:30;;;;;;;42.38;13.32;;;15.70;99.90;;;;;;5035712;28;20041;-59
2022/09/11 06:44:57;;;;;;;42.03;13.43;;;15.70;99.90;;;;;;5037653;28;20033;-60
2022/09/11 06:47:24;;;;;;;23.33;12.45;;;15.70;99.90;;;;;;5039527;28;20030;-58
2022/09/11 06:49:51;;;;;;;27.80;11.60;;;15.80;99.90;;;;;;5038938;28;20064;-60
2022/09/11 06:52:17;;;;;;;17.65;12.23;;;15.80;99.90;;;;;;5006343;28;20061;-58
2022/09/11 06:54:44;;;;;;;17.55;11.88;;;15.80;99.90;;;;;;5022649;28;20061;-59
2022/09/11 06:57:11;;;;;;;20.70;12.82;;;15.90;99.90;;;;;;5039675;28;20053;-59
2022/09/11 06:59:38;;;;;;;22.98;12.55;;;15.90;99.90;;;;;;5038625;28;20061;-59
2022/09/11 07:02:04;;;;;;;18.35;12.15;;;15.90;99.90;;;;;;5039172;28;20046;-59
2022/09/11 07:04:31;;;;;;;14.82;11.32;;;16.00;99.90;;;;;;5039437;28;20029;-59
2022/09/11 07:06:58;;;;;;;18.60;11.98;;;16.00;99.90;;;;;;5038939;28;20026;-59
2022/09/11 07:09:25;;;;;;;14.35;11.85;;;16.10;99.90;;;;;;5038979;28;20037;-59
2022/09/11 07:11:52;;;;;;;17.38;12.20;;;16.20;99.90;;;;;;5039214;28;20134;-59
2022/09/11 07:14:22;;;;;;;17.80;12.95;;;16.30;99.90;;;;;;5038970;28;20183;-59
2022/09/11 07:16:54;;;;;;;16.50;12.73;;;16.30;99.90;;;;;;5039110;28;20049;-59
2022/09/11 07:19:23;;;;;;;21.98;14.55;;;16.50;99.90;;;;;;5054275;28;20101;-60
2022/09/11 07:21:50;;;;;;;25.65;13.55;;;16.60;99.90;;;;;;5038270;28;20029;-58
2022/09/11 07:24:17;;;;;;;18.60;14.32;;;16.60;99.90;;;;;;5037953;28;20062;-58
2022/09/11 07:26:44;;;;;;;23.25;14.35;;;16.70;99.90;;;;;;5035223;28;20113;-59
2022/09/11 07:29:14;;;;;;;19.50;13.75;;;16.80;99.90;;;;;;5038526;28;20026;-58
2022/09/11 07:31:42;;;;;;;23.17;13.40;;;16.90;99.90;;;;;;5038476;28;20033;-59
2022/09/11 07:34:09;;;;;;;17.73;15.33;;;17.00;99.90;;;;;;4689401;28;10001015;-59
2022/09/11 07:36:36;;;;;;;19.95;13.95;;;17.00;99.90;;;;;;5032884;28;20192;-59
2022/09/11 07:39:04;;;;;;;16.02;12.82;;;17.10;99.90;;;;;;5019236;28;20034;-59
2022/09/11 07:41:30;;;;;;;18.00;14.35;;;17.10;99.90;;;;;;5035910;28;20056;-60
2022/09/11 07:44:02;;;;;;;23.23;12.88;;;17.20;99.90;;;;;;5034362;28;20053;-57
2022/09/11 07:46:30;;;;;;;20.95;12.45;;;17.30;99.90;;;;;;5034975;28;20069;-58
2022/09/11 07:48:57;;;;;;;21.15;12.65;;;17.30;99.90;;;;;;5019160;28;20061;-60
2022/09/11 07:51:25;;;;;;;17.85;11.30;;;17.40;99.90;;;;;;5036129;28;20042;-59
2022/09/11 07:53:53;;;;;;;15.80;11.40;;;17.50;99.90;;;;;;5035324;28;20068;-58
2022/09/11 07:56:24;;;;;;;15.43;11.88;;;17.50;99.90;;;;;;5039936;28;20049;-58
2022/09/11 07:58:51;;;;;;;15.27;11.60;;;17.60;99.90;;;;;;5034770;28;20164;-59
2022/09/11 08:01:20;;;;;;;13.70;12.10;;;17.70;99.90;;;;;;5017757;28;20053;-59
2022/09/11 08:03:48;;;;;;;19.58;11.55;;;17.80;99.90;;;;;;5018825;28;20153;-62
2022/09/11 08:06:16;;;;;;;15.30;10.40;;;17.70;99.90;;;;;;5035535;28;21065;-58
2022/09/11 08:08:54;;;;;;;14.90;9.38;;;17.80;99.90;;;;;;5035143;28;20045;-59
2022/09/11 08:11:28;;;;;;;16.42;10.50;;;17.90;99.90;;;;;;5018296;28;20030;-59
2022/09/11 08:13:55;;;;;;;10.00;9.00;;;17.90;99.90;;;;;;5035264;28;20077;-60
2022/09/11 08:16:24;;;;;;;14.25;11.65;;;18.00;99.90;;;;;;5050551;28;20133;-59
2022/09/11 08:18:54;;;;;;;13.77;9.97;;;18.10;99.90;;;;;;5017450;28;20348;-59
2022/09/11 08:21:22;;;;;;;16.10;10.98;;;18.10;99.90;;;;;;5016637;28;20172;-58
2022/09/11 08:23:48;;;;;;;18.77;11.60;;;18.20;99.90;;;;;;5033665;28;20061;-58
2022/09/11 08:26:16;;;;;;;15.85;10.18;;;18.30;99.90;;;;;;5017948;28;20111;-59
2022/09/11 08:28:43;;;;;;;11.00;9.13;;;18.40;99.90;;;;;;5034699;28;20059;-60
2022/09/11 08:31:11;;;;;;;15.50;7.97;;;18.40;99.90;;;;;;5018314;28;20041;-59
2022/09/11 08:33:38;;;;;;;15.15;9.25;;;18.50;99.90;;;;;;5017334;28;20040;-58
2022/09/11 08:36:08;;;;;;;10.23;7.82;;;18.50;99.90;;;;;;5032838;28;20096;-58
2022/09/11 08:38:36;;;;;;;12.93;8.88;;;18.60;99.90;;;;;;5016595;28;20084;-59
2022/09/11 08:41:15;;;;;;;11.18;8.07;;;18.60;99.90;;;;;;4981281;28;20050;-59
2022/09/11 08:44:05;;;;;;;15.77;7.72;;;18.70;99.90;;;;;;4996344;28;20256;-58
2022/09/11 08:46:40;;;;;;;10.13;5.78;;;18.80;99.90;;;;;;5006266;28;20070;-59
2022/09/11 08:49:37;;;;;;;13.10;6.10;;;18.80;99.90;;;;;;4985123;28;20041;-60
2022/09/11 08:52:04;;;;;;;11.63;6.93;;;18.80;99.90;;;;;;5048737;28;20034;-59
2022/09/11 08:54:33;;;;;;;11.18;7.18;;;18.80;99.90;;;;;;5039203;28;20037;-59
2022/09/11 08:57:24;;;;;;;15.75;7.07;;;18.90;99.90;;;;;;5033419;28;20057;-58
2022/09/11 09:00:03;;;;;;;11.90;6.32;;;19.00;99.90;;;;;;5032460;28;20098;-59
2022/09/11 09:02:55;;;;;;;8.48;7.20;;;19.00;99.90;;;;;;5016514;28;20121;-60
2022/09/11 09:05:54;;;;;;;9.20;6.43;;;19.10;99.90;;;;;;5033375;28;20045;-58
2022/09/11 09:08:48;;;;;;;17.60;8.32;;;19.10;99.90;;;;;;5046258;28;20069;-59
2022/09/11 09:11:35;;;;;;;10.88;6.38;;;19.20;99.90;;;;;;5045645;28;20029;-60
2022/09/11 09:14:29;;;;;;;9.45;6.22;;;19.20;99.90;;;;;;5032038;28;20066;-58
2022/09/11 09:16:59;;;;;;;;;;;19.30;99.90;;;;;;5017354;28;20033;-59
2022/09/11 09:19:33;;;;;;;12.48;5.97;;;19.50;99.90;;;;;;5033222;28;19909;-59
2022/09/11 09:22:02;;;;;;;;;;;19.70;99.90;;;;;;5016681;28;20057;-60
2022/09/11 09:24:40;;;;;;;9.93;4.57;;;19.90;99.90;;;;;;5026231;28;19967;-60
2022/09/11 09:27:10;;;;;;;11.55;4.50;;;20.30;99.90;;;;;;5033170;28;20042;-59
2022/09/11 09:29:37;;;;;;;10.57;4.80;;;20.50;99.90;;;;;;5017003;28;20035;-59
2022/09/11 09:32:06;;;;;;;7.38;3.55;;;20.70;99.90;;;;;;5001033;28;20044;-59
2022/09/11 09:34:34;;;;;;;8.57;3.75;;;20.80;99.90;;;;;;5049701;28;20080;-59
2022/09/11 09:37:14;;;;;;;6.40;3.80;;;20.90;99.90;;;;;;5000329;28;20049;-59
2022/09/11 09:39:40;;;;;;;5.82;3.80;;;21.10;99.90;;;;;;5016747;28;20042;-59
2022/09/11 09:42:13;;;;;;;6.07;3.50;;;21.40;99.90;;;;;;5034312;28;20119;-59
2022/09/11 09:44:49;;;;;;;7.33;3.27;;;21.60;99.90;;;;;;5033283;28;20202;-58
2022/09/11 09:47:16;;;;;;;8.40;3.03;;;21.80;99.90;;;;;;5033181;28;20090;-59
2022/09/11 09:49:43;;;;;;;6.68;3.50;;;22.00;99.90;;;;;;5032817;28;20029;-59
2022/09/11 09:52:24;;;;;;;8.90;3.47;;;22.10;99.90;;;;;;5016249;28;20098;-59
2022/09/11 09:54:55;;;;;;;11.13;4.10;;;22.10;99.90;;;;;;5033215;28;20385;-59
2022/09/11 09:57:23;;;;;;;12.30;3.78;;;21.90;99.90;;;;;;5016573;28;20037;-61
2022/09/11 10:00:10;;;;;;;8.57;4.18;;;21.80;99.90;;;;;;5047998;28;20101;-60
2022/09/11 10:02:53;;;;;;;10.13;3.70;;;21.70;99.90;;;;;;5037232;28;20061;-60
2022/09/11 10:05:27;;;;;;;9.10;3.97;;;21.60;99.90;;;;;;5015867;28;20061;-60
2022/09/11 10:08:24;;;;;;;6.03;3.15;;;21.60;99.90;;;;;;5015679;28;20077;-59
2022/09/11 10:11:05;;;;;;;9.93;3.63;;;21.50;99.90;;;;;;5032042;28;20077;-59
2022/09/11 10:13:33;;;;;;;11.70;3.60;;;21.40;99.90;;;;;;5014755;28;20080;-59
2022/09/11 10:16:04;;;;;;;7.78;3.72;;;21.30;99.90;;;;;;4997848;28;20040;-58
2022/09/11 10:18:33;;;;;;;5.82;3.88;;;21.30;99.90;;;;;;5015050;28;20068;-58
2022/09/11 10:21:12;;;;;;;8.60;3.90;;;21.30;99.90;;;;;;5018617;28;20105;-58
2022/09/11 10:23:53;;;;;;;8.55;3.30;;;21.40;99.90;;;;;;5035233;28;20045;-59
2022/09/11 10:26:26;;;;;;;7.45;4.45;;;21.40;99.90;;;;;;5005777;28;20263;-59
2022/09/11 10:28:55;;;;;;;7.97;3.90;;;21.40;99.90;;;;;;5019327;28;20121;-59
2022/09/11 10:31:21;;;;;;;12.55;4.90;;;21.40;99.90;;;;;;5019230;28;20030;-59
2022/09/11 10:33:55;;;;;;;7.53;3.38;;;21.30;99.90;;;;;;5036766;28;20054;-59
2022/09/11 10:36:26;;;;;;;10.02;3.47;;;21.30;99.90;;;;;;5035352;28;20040;-60
2022/09/11 10:38:52;;;;;;;8.63;3.90;;;21.20;99.90;;;;;;5036149;28;20260;-59
2022/09/11 10:41:23;;;;;;;4.45;3.00;;;21.20;99.90;;;;;;5036321;28;20040;-59
2022/09/11 10:43:57;;;;;;;6.28;2.83;;;21.30;99.90;;;;;;5006594;28;20129;-59
2022/09/11 10:46:27;;;;;;;9.07;3.13;;;21.20;99.90;;;;;;5015947;28;20061;-58
2022/09/11 10:48:59;;;;;;;3.47;2.45;;;21.20;99.90;;;;;;5023842;28;20068;-59
2022/09/11 10:51:28;;;;;;;6.38;2.20;;;21.30;99.90;;;;;;5015847;28;20038;-58
2022/09/11 10:54:04;;;;;;;6.05;2.53;;;21.30;99.90;;;;;;5014385;28;20053;-59
2022/09/11 10:56:33;;;;;;;4.45;2.45;;;21.40;99.90;;;;;;5033343;28;20041;-59
2022/09/11 10:59:03;;;;;;;6.00;2.88;;;21.40;99.90;;;;;;5031588;28;20444;-60
2022/09/11 11:01:30;;;;;;;7.50;2.83;;;21.30;99.90;;;;;;5002861;28;20049;-58
2022/09/11 11:03:57;;;;;;;5.75;2.80;;;21.30;99.90;;;;;;5047351;28;20034;-59
2022/09/11 11:06:45;;;;;;;5.82;3.10;;;21.30;99.90;;;;;;5036030;28;20032;-59
2022/09/11 11:09:35;;;;;;;7.65;3.15;;;21.50;99.90;;;;;;5035628;28;20061;-60
2022/09/11 11:12:33;;;;;;;4.90;2.15;;;21.60;99.90;;;;;;5018763;28;20097;-59
2022/09/11 11:15:16;;;;;;;4.35;2.08;;;21.70;99.90;;;;;;5024376;28;20052;-58
2022/09/11 11:17:50;;;;;;;5.78;1.98;;;21.70;99.90;;;;;;5036354;28;20048;-58
2022/09/11 11:20:28;;;;;;;4.18;1.90;;;21.70;99.90;;;;;;5019093;28;20109;-59
2022/09/11 11:23:11;;;;;;;3.42;2.10;;;21.70;99.90;;;;;;5034381;28;20099;-58
2022/09/11 11:25:56;;;;;;;5.65;2.45;;;21.60;99.90;;;;;;5035829;28;20041;-58
2022/09/11 11:28:38;;;;;;;7.25;2.28;;;21.60;99.90;;;;;;5035550;28;20025;-59
2022/09/11 11:31:27;;;;;;;6.88;3.28;;;21.70;99.90;;;;;;5034997;28;20073;-59
2022/09/11 11:34:33;;;;;;;10.38;2.97;;;21.70;99.90;;;;;;5050202;28;20040;-61
2022/09/11 11:37:22;;;;;;;5.22;2.80;;;21.70;99.90;;;;;;5016089;28;20073;-59
2022/09/11 11:40:33;;;;;;;7.25;3.00;;;21.70;99.90;;;;;;5017140;28;20056;-59
2022/09/11 11:43:03;;;;;;;7.10;2.72;;;21.70;99.90;;;;;;4955276;28;20558;-59
2022/09/11 11:45:56;;;;;;;6.00;2.25;;;21.80;99.90;;;;;;4998844;28;20356;-59
2022/09/11 11:48:33;;;;;;;6.25;2.80;;;21.80;99.90;;;;;;5036289;28;20040;-60
2022/09/11 11:51:02;;;;;;;3.55;2.33;;;21.70;99.90;;;;;;5020778;28;20038;-58
2022/09/11 11:54:02;;;;;;;6.20;2.97;;;21.70;99.90;;;;;;5034844;28;20264;-59
2022/09/11 11:56:38;;;;;;;4.32;2.45;;;21.70;99.90;;;;;;5034618;28;20090;-60
2022/09/11 11:59:30;;;;;;;6.72;3.05;;;21.80;99.90;;;;;;5036007;28;20102;-59
2022/09/11 12:02:04;;;;;;;3.95;2.28;;;21.90;99.90;;;;;;4999850;28;20056;-59
2022/09/11 12:04:37;;;;;;;7.72;2.45;;;22.10;99.90;;;;;;5020220;28;20070;-59
2022/09/11 12:07:03;;;;;;;6.05;2.25;;;22.30;99.90;;;;;;5019583;28;20097;-59
2022/09/11 12:09:30;;;;;;;4.90;2.55;;;22.40;99.90;;;;;;5035483;28;20060;-60
2022/09/11 12:12:03;;;;;;;3.35;1.83;;;22.50;99.90;;;;;;5023129;28;20056;-59
2022/09/11 12:14:33;;;;;;;12.82;3.53;;;22.70;99.90;;;;;;5005133;28;20032;-60
2022/09/11 12:17:39;;;;;;;4.72;2.45;;;22.70;99.90;;;;;;5003787;28;20065;-60
2022/09/11 12:20:08;;;;;;;6.50;2.83;;;22.80;99.90;;;;;;4984056;28;20059;-59
2022/09/11 12:22:40;;;;;;;6.68;2.00;;;22.80;99.90;;;;;;4976826;28;20163;-59
2022/09/11 12:25:30;;;;;;;6.55;2.35;;;22.80;99.90;;;;;;5008698;28;20030;-59
2022/09/11 12:28:23;;;;;;;8.75;2.10;;;22.70;99.90;;;;;;5025001;28;20045;-60
2022/09/11 12:31:06;;;;;;;5.93;1.80;;;22.70;99.90;;;;;;5035926;28;20072;-58
2022/09/11 12:33:39;;;;;;;6.60;2.22;;;22.70;99.90;;;;;;5018365;28;20125;-59
2022/09/11 12:36:11;;;;;;;6.20;2.05;;;22.60;99.90;;;;;;5034684;28;20068;-59
2022/09/11 12:38:40;;;;;;;8.13;2.13;;;22.60;99.90;;;;;;5049820;28;20187;-60
2022/09/11 12:41:16;;;;;;;5.47;2.40;;;22.60;99.90;;;;;;5045610;28;20057;-59
2022/09/11 12:43:42;;;;;;;4.53;1.85;;;22.60;99.90;;;;;;5016657;28;20042;-60
2022/09/11 12:46:35;;;;;;;4.63;2.28;;;22.60;99.90;;;;;;5034100;28;20076;-59
2022/09/11 12:49:08;;;;;;;4.57;2.67;;;22.60;99.90;;;;;;5020039;28;20030;-59
2022/09/11 12:51:55;;;;;;;3.25;1.50;;;22.60;99.90;;;;;;5036186;28;20206;-59
2022/09/11 12:54:30;;;;;;;5.18;1.60;;;22.60;99.90;;;;;;5035616;28;20061;-60
2022/09/11 12:57:07;;;;;;;3.90;1.33;;;22.50;99.90;;;;;;5020612;28;20044;-59
2022/09/11 12:59:39;;;;;;;5.22;2.17;;;22.50;99.90;;;;;;5052343;28;20076;-60
2022/09/11 13:02:21;;;;;;;6.28;1.88;;;22.60;99.90;;;;;;5000282;28;20034;-60
2022/09/11 13:04:48;;;;;;;4.05;1.67;;;22.80;99.90;;;;;;5017467;28;20038;-60